Time;durP1;ratioP1;P1;durP2;ratioP2;P2;SDS_P1;SDS_P2;PMS_P1;PMS_P2;Temp;Humidity;BMP_temperature;BMP_pressure;BME280_temperature;BME280_humidity;BME280_pressure;Samples;Min_cycle;Max_cycle;Signal;HPM_P1;HPM_P2
2021/11/25 00:02:12;;;;;;;;;18.25;17.25;;;;;19.19;37.92;100442.97;5043512;28;53430;-75
2021/11/25 00:04:38;;;;;;;;;19.75;16.25;;;;;19.15;37.65;100434.28;5043449;28;53655;-74
2021/11/25 00:07:03;;;;;;;;;19.00;16.25;;;;;19.15;37.90;100441.38;5042953;28;66060;-75
2021/11/25 00:09:28;;;;;;;;;16.25;14.75;;;;;19.14;38.63;100439.63;5043622;28;45270;-75
2021/11/25 00:11:54;;;;;;;;;13.25;12.00;;;;;19.15;37.79;100442.22;5034320;28;63376;-74
2021/11/25 00:14:19;;;;;;;;;15.25;13.50;;;;;19.16;37.88;100448.38;5026515;28;45792;-75
2021/11/25 00:16:46;;;;;;;;;16.75;14.25;;;;;19.14;37.95;100445.78;5060304;28;45410;-74
2021/11/25 00:19:12;;;;;;;;;17.25;15.25;;;;;19.12;37.70;100441.47;5060303;28;45607;-75
2021/11/25 00:21:38;;;;;;;;;16.25;15.50;;;;;19.11;37.85;100443.25;5043515;28;46792;-74
2021/11/25 00:24:05;;;;;;;;;15.25;14.25;;;;;19.07;37.67;100444.25;5060299;28;45344;-75
2021/11/25 00:26:32;;;;;;;;;16.25;13.50;;;;;19.07;37.76;100436.31;5044027;28;45237;-74
2021/11/25 00:28:57;;;;;;;;;16.00;15.25;;;;;19.05;37.49;100440.78;5061598;28;45448;-75
2021/11/25 00:31:23;;;;;;;;;15.75;15.00;;;;;19.04;37.56;100431.13;5061139;28;45456;-75
2021/11/25 00:33:48;;;;;;;;;17.75;15.25;;;;;19.00;37.80;100433.88;5060820;28;60745;-74
2021/11/25 00:36:13;;;;;;;;;15.25;15.25;;;;;18.99;37.74;100433.03;5061107;28;55519;-74
2021/11/25 00:38:39;;;;;;;;;15.75;14.25;;;;;18.98;37.97;100425.13;5060134;28;45440;-74
2021/11/25 00:41:04;;;;;;;;;14.00;13.75;;;;;18.97;38.09;100418.13;5043050;28;55361;-74
2021/11/25 00:43:30;;;;;;;;;15.50;13.50;;;;;18.93;38.11;100414.69;5060146;28;45346;-75
2021/11/25 00:45:55;;;;;;;;;17.75;16.75;;;;;18.92;37.92;100418.25;5043413;28;45423;-74
2021/11/25 00:48:20;;;;;;;;;12.75;12.75;;;;;18.91;38.23;100414.75;5059585;28;49939;-74
2021/11/25 00:50:46;;;;;;;;;19.00;16.75;;;;;18.90;38.03;100415.66;5043323;28;47108;-74
2021/11/25 00:53:14;;;;;;;;;17.50;15.75;;;;;18.91;38.09;100411.22;5059998;28;45394;-75
2021/11/25 00:55:40;;;;;;;;;18.00;15.50;;;;;18.88;38.34;100401.63;5060221;28;45449;-74
2021/11/25 00:58:05;;;;;;;;;16.75;16.25;;;;;18.87;37.97;100406.97;5060567;28;61174;-74
2021/11/25 01:00:31;;;;;;;;;16.00;15.25;;;;;18.86;38.28;100407.88;5059521;28;46107;-75
2021/11/25 01:02:56;;;;;;;;;15.50;14.50;;;;;18.88;38.33;100406.03;5060156;28;64014;-74
2021/11/25 01:05:22;;;;;;;;;16.25;16.25;;;;;18.91;38.47;100412.09;5060626;28;61249;-74
2021/11/25 01:07:47;;;;;;;;;17.50;13.50;;;;;18.91;38.27;100406.81;5061011;28;45335;-74
2021/11/25 01:10:14;;;;;;;;;16.25;13.50;;;;;18.91;38.41;100413.88;5060945;28;49513;-75
2021/11/25 01:12:40;;;;;;;;;15.00;15.00;;;;;18.94;38.15;100416.44;5060763;28;45417;-74
2021/11/25 01:15:06;;;;;;;;;13.50;13.25;;;;;18.94;38.10;100413.81;5059691;28;45447;-74
2021/11/25 01:17:31;;;;;;;;;15.75;15.00;;;;;18.94;37.86;100416.44;5059232;28;45465;-75
2021/11/25 01:19:57;;;;;;;;;17.00;15.50;;;;;18.96;38.02;100416.41;5060804;28;46412;-75
2021/11/25 01:22:22;;;;;;;;;16.00;14.50;;;;;18.96;38.24;100419.03;5042214;28;57509;-75
2021/11/25 01:24:48;;;;;;;;;16.75;15.50;;;;;18.97;38.11;100420.78;5042121;28;59835;-76
2021/11/25 01:27:13;;;;;;;;;19.00;17.50;;;;;18.92;37.59;100405.88;5041585;28;45307;-74
2021/11/25 01:29:38;;;;;;;;;19.25;16.25;;;;;18.89;37.74;100413.06;5060526;28;45258;-74
2021/11/25 01:32:04;;;;;;;;;18.25;15.00;;;;;18.85;38.03;100414.94;5060270;28;45269;-75
2021/11/25 01:34:30;;;;;;;;;14.50;14.50;;;;;18.85;38.19;100421.97;5060865;28;45387;-75
2021/11/25 01:36:55;;;;;;;;;16.00;15.25;;;;;18.84;38.09;100425.53;5042079;28;54517;-75
2021/11/25 01:39:20;;;;;;;;;16.25;15.00;;;;;18.84;38.54;100421.13;5058530;28;65802;-74
2021/11/25 01:41:47;;;;;;;;;19.75;14.25;;;;;18.82;37.54;100420.31;5058696;28;56499;-74
2021/11/25 01:44:13;;;;;;;;;17.50;16.50;;;;;18.78;38.46;100418.69;5059454;28;45485;-74
2021/11/25 01:46:38;;;;;;;;;16.00;16.00;;;;;18.77;37.58;100410.81;5059595;28;56719;-74
2021/11/25 01:49:03;;;;;;;;;17.00;15.50;;;;;18.75;37.79;100404.66;5058316;28;67897;-75
2021/11/25 01:51:29;;;;;;;;;15.75;14.00;;;;;18.73;38.32;100406.50;5058475;28;59934;-74
2021/11/25 01:53:54;;;;;;;;;18.25;15.25;;;;;18.73;38.46;100407.38;5060204;28;52199;-74
2021/11/25 01:56:20;;;;;;;;;19.75;17.00;;;;;18.75;37.80;100416.09;5060166;28;45573;-74
2021/11/25 01:58:46;;;;;;;;;15.75;13.25;;;;;18.76;37.49;100411.69;5060198;28;46255;-74
2021/11/25 02:01:11;;;;;;;;;16.25;15.00;;;;;18.74;37.76;100406.44;5059559;28;45430;-74
2021/11/25 02:03:37;;;;;;;;;15.25;14.75;;;;;18.73;38.46;100404.72;5058988;28;45252;-74
2021/11/25 02:06:02;;;;;;;;;17.50;14.50;;;;;18.74;37.54;100398.53;5059431;28;56738;-74
2021/11/25 02:08:28;;;;;;;;;16.00;13.50;;;;;18.75;38.09;100404.66;5041817;28;46308;-74
2021/11/25 02:10:54;;;;;;;;;13.75;13.75;;;;;18.75;37.74;100407.31;5058635;28;45288;-74
2021/11/25 02:13:20;;;;;;;;;15.75;13.75;;;;;18.74;38.01;100410.88;5058906;28;45387;-74
2021/11/25 02:15:45;;;;;;;;;16.25;14.25;;;;;18.73;37.29;100401.22;5058439;28;45402;-74
2021/11/25 02:18:13;;;;;;;;;16.00;15.50;;;;;18.74;37.09;100405.59;5058397;28;45330;-74
2021/11/25 02:20:43;;;;;;;;;14.75;13.00;;;;;18.71;37.11;100403.03;5041706;28;45285;-74
2021/11/25 02:23:09;;;;;;;;;14.25;14.25;;;;;18.70;37.31;100403.97;5038695;28;45465;-74
2021/11/25 02:25:34;;;;;;;;;19.25;15.00;;;;;18.69;37.78;100404.88;5039524;28;45466;-74
2021/11/25 02:28:00;;;;;;;;;13.50;13.50;;;;;18.69;37.96;100404.88;5058118;28;59966;-74
2021/11/25 02:30:25;;;;;;;;;17.50;14.00;;;;;18.67;37.86;100391.66;5058005;28;56609;-74
2021/11/25 02:32:51;;;;;;;;;13.75;13.75;;;;;18.71;38.11;100403.91;5041684;28;48163;-74
2021/11/25 02:35:18;;;;;;;;;14.25;13.25;;;;;18.70;37.46;100394.25;5058426;28;45483;-74
2021/11/25 02:37:44;;;;;;;;;14.00;14.00;;;;;18.68;37.39;100389.91;5059818;28;45365;-74
2021/11/25 02:40:28;;;;;;;;;14.25;14.25;;;;;18.65;37.05;100393.50;5045072;28;45584;-74
2021/11/25 02:42:57;;;;;;;;;15.25;14.50;;;;;18.63;37.66;100392.66;5063529;28;45429;-74
2021/11/25 02:45:23;;;;;;;;;12.50;10.75;;;;;18.61;37.66;100390.06;5061883;28;45461;-74
2021/11/25 02:47:49;;;;;;;;;15.50;12.25;;;;;18.60;37.66;100377.75;5044962;28;46111;-74
2021/11/25 02:50:18;;;;;;;;;13.00;12.00;;;;;18.60;37.85;100384.84;5063400;28;45421;-74
2021/11/25 02:52:43;;;;;;;;;13.75;13.50;;;;;18.61;37.66;100389.19;5062091;28;45425;-74
2021/11/25 02:55:09;;;;;;;;;12.25;11.00;;;;;18.61;37.84;100392.72;5078878;28;45536;-74
2021/11/25 02:57:35;;;;;;;;;12.75;10.25;;;;;18.62;37.58;100383.00;5044828;28;47044;-74
2021/11/25 03:00:01;;;;;;;;;15.00;10.50;;;;;18.61;37.69;100379.50;5061566;28;45461;-74
2021/11/25 03:02:26;;;;;;;;;13.00;12.50;;;;;18.61;37.45;100386.56;5044066;28;65790;-74
2021/11/25 03:04:51;;;;;;;;;15.00;14.50;;;;;18.60;36.94;100385.69;5062533;28;53808;-75
2021/11/25 03:07:17;;;;;;;;;13.00;13.00;;;;;18.59;37.08;100388.34;5044812;28;47041;-74
2021/11/25 03:09:42;;;;;;;;;13.75;13.00;;;;;18.56;37.11;100389.31;5061266;28;52452;-74
2021/11/25 03:12:09;;;;;;;;;16.00;12.50;;;;;18.52;36.75;100387.69;5054412;28;50160;-74
2021/11/25 03:14:34;;;;;;;;;12.50;11.75;;;;;18.53;36.98;100383.28;5044904;28;45648;-74
2021/11/25 03:16:59;;;;;;;;;12.75;12.00;;;;;18.52;37.29;100382.41;5061029;28;45499;-74
2021/11/25 03:19:25;;;;;;;;;12.25;12.25;;;;;18.52;37.33;100370.97;5060849;28;60834;-74
2021/11/25 03:21:50;;;;;;;;;12.00;11.50;;;;;18.54;36.90;100363.84;5060958;28;58763;-74
2021/11/25 03:24:16;;;;;;;;;15.00;12.75;;;;;18.52;37.57;100366.56;5044644;28;45692;-74
2021/11/25 03:26:41;;;;;;;;;11.00;9.00;;;;;18.54;37.75;100361.22;5060731;28;62058;-74
2021/11/25 03:29:06;;;;;;;;;13.50;12.50;;;;;18.53;37.45;100364.78;5061267;28;45174;-75
2021/11/25 03:31:32;;;;;;;;;13.50;10.50;;;;;18.51;37.52;100363.97;5043717;28;57353;-74
2021/11/25 03:33:58;;;;;;;;;12.75;12.75;;;;;18.50;37.46;100373.63;5044208;28;45657;-74
2021/11/25 03:36:24;;;;;;;;;12.75;10.00;;;;;18.50;37.89;100367.47;5061111;28;48041;-74
2021/11/25 03:38:50;;;;;;;;;12.50;11.75;;;;;18.51;37.12;100363.97;5062312;28;45419;-74
2021/11/25 03:41:15;;;;;;;;;14.00;12.75;;;;;18.51;37.66;100362.19;5027728;28;45445;-74
2021/11/25 03:43:41;;;;;;;;;12.25;11.75;;;;;18.50;37.54;100363.06;5060350;28;64783;-74
2021/11/25 03:46:06;;;;;;;;;11.25;11.25;;;;;18.50;37.77;100363.06;5060684;28;48120;-74
2021/11/25 03:48:32;;;;;;;;;13.50;11.25;;;;;18.53;38.09;100370.06;5060452;28;45631;-74
2021/11/25 03:51:01;;;;;;;;;15.00;13.00;;;;;18.52;37.93;100363.91;5043832;28;45359;-74
2021/11/25 03:53:27;;;;;;;;;14.75;12.75;;;;;18.50;37.67;100363.06;5044770;28;45239;-74
2021/11/25 03:55:52;;;;;;;;;16.25;13.50;;;;;18.42;37.84;100369.47;5044328;28;46292;-74
2021/11/25 03:58:18;;;;;;;;;11.25;10.75;;;;;18.39;37.63;100362.50;5060980;28;45346;-74
2021/11/25 04:00:43;;;;;;;;;13.00;11.00;;;;;18.35;37.89;100361.75;5060333;28;47200;-74
2021/11/25 04:03:09;;;;;;;;;14.50;12.25;;;;;18.36;37.64;100360.84;5060544;28;45326;-74
2021/11/25 04:05:34;;;;;;;;;12.25;12.00;;;;;18.35;38.20;100366.16;5060118;28;68704;-74
2021/11/25 04:08:00;;;;;;;;;13.00;11.50;;;;;18.36;37.72;100370.53;5059987;28;57530;-74
2021/11/25 04:10:25;;;;;;;;;12.75;12.75;;;;;18.39;37.35;100365.16;5060998;28;45776;-74
2021/11/25 04:12:51;;;;;;;;;16.25;14.00;;;;;18.40;37.24;100368.66;5076321;28;45504;-74
2021/11/25 04:15:16;;;;;;;;;13.50;10.75;;;;;18.38;37.27;100366.06;5043271;28;47265;-74
2021/11/25 04:17:41;;;;;;;;;13.25;13.25;;;;;18.36;37.71;100363.47;5043474;28;45613;-74
2021/11/25 04:20:07;;;;;;;;;10.75;10.75;;;;;18.39;38.11;100366.94;5042966;28;62938;-74
2021/11/25 04:22:33;;;;;;;;;14.50;11.50;;;;;18.41;37.44;100367.75;5060433;28;45313;-74
2021/11/25 04:24:58;;;;;;;;;10.50;9.25;;;;;18.42;38.13;100369.47;5059868;28;63424;-74
2021/11/25 04:27:24;;;;;;;;;11.00;11.00;;;;;18.39;37.46;100365.16;5061136;28;52832;-74
2021/11/25 04:35:34;;;;;;;;;13.25;12.50;;;;;18.34;37.13;100356.53;5060500;28;45358;-74
2021/11/25 04:38:05;;;;;;;;;11.00;10.50;;;;;18.31;37.82;100357.44;5061574;28;45440;-74
2021/11/25 04:40:36;;;;;;;;;13.25;13.25;;;;;18.30;37.53;100354.84;5060090;28;45252;-73
2021/11/25 04:43:02;;;;;;;;;15.00;11.00;;;;;18.31;37.85;100361.88;5059998;28;45645;-74
2021/11/25 04:45:28;;;;;;;;;11.00;9.50;;;;;18.30;38.03;100361.00;5043373;28;46396;-74
2021/11/25 04:47:53;;;;;;;;;17.25;14.00;;;;;18.31;38.04;100367.16;5059952;28;45311;-74
2021/11/25 04:50:20;;;;;;;;;14.00;13.00;;;;;18.31;38.41;100369.78;5060545;28;45322;-74
2021/11/25 04:52:46;;;;;;;;;15.75;15.00;;;;;18.32;38.59;100359.19;5060059;28;45497;-74
2021/11/25 04:55:11;;;;;;;;;17.25;15.25;;;;;18.31;37.93;100354.81;5061081;28;46055;-73
2021/11/25 04:57:37;;;;;;;;;17.50;14.50;;;;;18.28;38.21;100354.91;5061116;28;45205;-74
2021/11/25 05:00:04;;;;;;;;;16.25;14.50;;;;;18.29;38.24;100355.78;5061250;28;45404;-74
2021/11/25 05:02:30;;;;;;;;;14.50;14.00;;;;;18.29;38.97;100358.41;5060739;28;45364;-74
2021/11/25 05:04:55;;;;;;;;;16.25;16.25;;;;;18.28;38.73;100348.75;5061012;28;45982;-74
2021/11/25 05:07:20;;;;;;;;;16.50;15.00;;;;;18.27;38.39;100350.53;5026195;28;52181;-73
2021/11/25 05:09:46;;;;;;;;;20.50;19.00;;;;;18.29;38.97;100355.78;5026075;28;49433;-74
2021/11/25 05:12:11;;;;;;;;;19.00;19.00;;;;;18.27;38.31;100355.81;5052521;28;54085;-74
2021/11/25 05:14:37;;;;;;;;;18.75;17.50;;;;;18.29;38.89;100363.69;5042004;28;62861;-74
2021/11/25 05:17:02;;;;;;;;;23.75;22.00;;;;;18.30;38.31;100350.44;5059106;28;52054;-74
2021/11/25 05:19:28;;;;;;;;;16.25;15.50;;;;;18.32;39.03;100353.91;5061143;28;45216;-73
2021/11/25 05:21:53;;;;;;;;;22.75;21.75;;;;;18.33;38.32;100342.44;5060833;28;45486;-74
2021/11/25 05:24:18;;;;;;;;;24.00;23.75;;;;;18.31;38.49;100338.09;5041948;28;66400;-73
2021/11/25 05:26:44;;;;;;;;;20.25;18.00;;;;;18.32;38.52;100338.03;5042770;28;45333;-74
2021/11/25 05:29:09;;;;;;;;;23.00;21.25;;;;;18.31;39.13;100336.31;5060829;28;45388;-74
2021/11/25 05:31:35;;;;;;;;;20.75;19.50;;;;;18.34;39.13;100343.31;5038279;28;64068;-74
2021/11/25 05:34:03;;;;;;;;;25.75;22.75;;;;;18.33;38.65;100353.00;5040497;28;68896;-75
2021/11/25 05:36:28;;;;;;;;;31.25;25.75;;;;;18.32;39.28;100353.03;5059449;28;45325;-73
2021/11/25 05:38:54;;;;;;;;;24.50;22.25;;;;;18.28;39.19;100352.25;5041727;28;59896;-74
2021/11/25 05:41:19;;;;;;;;;28.75;25.00;;;;;18.29;38.84;100350.47;5059384;28;45346;-74
2021/11/25 05:43:45;;;;;;;;;25.50;24.25;;;;;18.28;39.00;100357.56;5042173;28;46204;-75
2021/11/25 05:46:10;;;;;;;;;31.25;28.00;;;;;18.30;38.91;100365.41;5059061;28;45504;-75
2021/11/25 05:48:35;;;;;;;;;28.25;23.75;;;;;18.27;39.06;100358.47;5061987;28;45338;-74
2021/11/25 05:51:01;;;;;;;;;31.75;26.25;;;;;18.26;39.61;100367.31;5060466;28;45301;-74
2021/11/25 05:53:26;;;;;;;;;33.75;29.75;;;;;18.25;38.69;100375.28;5060091;28;46018;-75
2021/11/25 05:55:52;;;;;;;;;26.00;24.75;;;;;18.21;39.26;100384.19;5058463;28;64824;-75
2021/11/25 05:58:17;;;;;;;;;28.25;25.50;;;;;18.14;38.85;100387.88;5041464;28;60265;-76
2021/11/25 06:00:43;;;;;;;;;27.25;22.75;;;;;18.12;39.95;100387.06;5041969;28;45462;-75
2021/11/25 06:03:08;;;;;;;;;18.25;16.50;;;;;18.15;40.85;100389.63;5058456;28;46602;-73
2021/11/25 06:05:34;;;;;;;;;17.25;15.75;;;;;18.31;41.88;100380.38;5059496;28;45240;-77
2021/11/25 06:07:59;;;;;;;;;16.50;15.75;;;;;18.51;42.10;100385.09;5059337;28;45411;-74
2021/11/25 06:10:25;;;;;;;;;13.50;13.25;;;;;18.72;43.24;100397.69;5043996;28;45330;-76
2021/11/25 06:12:51;;;;;;;;;15.25;14.00;;;;;18.91;43.50;100400.66;5041144;28;46995;-75
2021/11/25 06:15:16;;;;;;;;;13.00;12.75;;;;;19.12;43.91;100407.09;5041722;28;45238;-76
2021/11/25 06:17:42;;;;;;;;;15.25;15.00;;;;;19.29;43.88;100390.69;5058662;28;45437;-73
2021/11/25 06:20:11;;;;;;;;;13.75;13.25;;;;;19.43;44.12;100396.38;5058878;28;45535;-74
2021/11/25 06:22:42;;;;;;;;;17.00;14.25;;;;;19.56;44.17;100403.03;5059651;28;46179;-74
2021/11/25 06:25:09;;;;;;;;;16.00;12.25;;;;;19.66;43.77;100399.16;5059903;28;45300;-74
2021/11/25 06:27:34;;;;;;;;;13.75;11.50;;;;;19.74;43.84;100390.97;5042029;28;45324;-74
2021/11/25 06:30:00;;;;;;;;;18.25;14.75;;;;;19.84;44.21;100383.56;5058787;28;45346;-73
2021/11/25 06:32:25;;;;;;;;;15.25;14.25;;;;;19.90;43.68;100391.31;5058383;28;46522;-76
2021/11/25 06:34:54;;;;;;;;;13.75;12.50;;;;;19.96;43.40;100401.66;5057803;28;64803;-74
2021/11/25 06:37:19;;;;;;;;;14.00;13.50;;;;;20.00;43.05;100405.97;5041888;28;45314;-75
2021/11/25 06:39:45;;;;;;;;;19.50;15.00;;;;;20.03;42.72;100396.09;5059165;28;69491;-74
2021/11/25 06:42:10;;;;;;;;;15.00;13.25;;;;;20.07;42.67;100391.59;5060104;28;62937;-75
2021/11/25 06:44:35;;;;;;;;;18.75;14.25;;;;;20.11;43.17;100403.78;5058148;28;45255;-76
2021/11/25 06:47:01;;;;;;;;;17.25;15.50;;;;;20.13;42.98;100401.94;5059652;28;45263;-75
2021/11/25 06:49:26;;;;;;;;;17.75;16.75;;;;;20.16;42.78;100401.84;5059139;28;56857;-75
2021/11/25 06:51:52;;;;;;;;;13.50;13.00;;;;;20.18;42.65;100393.84;5059438;28;45486;-75
2021/11/25 06:54:17;;;;;;;;;13.50;12.75;;;;;20.22;42.64;100403.41;5057830;28;60989;-75
2021/11/25 06:56:42;;;;;;;;;16.00;14.25;;;;;20.22;42.37;100406.03;5059603;28;45276;-71
2021/11/25 06:59:08;;;;;;;;;14.50;12.75;;;;;20.24;42.36;100412.16;5057913;28;57229;-74
2021/11/25 07:01:33;;;;;;;;;15.75;12.25;;;;;20.26;43.50;100410.34;5057752;28;45433;-73
2021/11/25 07:03:59;;;;;;;;;18.50;16.00;;;;;20.28;42.81;100417.31;5057782;28;45389;-75
2021/11/25 07:06:24;;;;;;;;;17.75;15.75;;;;;20.30;42.71;100422.53;5041342;28;45383;-74
2021/11/25 07:08:49;;;;;;;;;17.75;15.25;;;;;20.31;42.49;100426.91;5057559;28;62914;-74
2021/11/25 07:11:15;;;;;;;;;18.25;15.25;;;;;20.31;42.42;100435.72;5059471;28;46677;-74
2021/11/25 07:13:40;;;;;;;;;16.75;14.50;;;;;20.33;42.57;100435.69;5058247;28;56197;-73
2021/11/25 07:16:06;;;;;;;;;15.00;15.00;;;;;20.35;42.38;100448.88;5039953;28;64482;-74
2021/11/25 07:18:31;;;;;;;;;19.75;15.00;;;;;20.35;42.23;100441.81;5058022;28;45603;-74
2021/11/25 07:20:58;;;;;;;;;16.75;15.25;;;;;20.36;42.26;100438.22;5040556;28;56615;-74
2021/11/25 07:23:24;;;;;;;;;17.00;16.75;;;;;20.38;42.22;100432.88;5058028;28;45360;-74
2021/11/25 07:25:49;;;;;;;;;17.25;14.75;;;;;20.38;41.91;100443.47;5065105;28;45416;-74
2021/11/25 07:28:14;;;;;;;;;19.25;15.75;;;;;20.38;41.84;100441.69;5061627;28;65492;-73
2021/11/25 07:30:40;;;;;;;;;14.75;13.75;;;;;20.38;42.02;100446.97;5060375;28;58001;-75
2021/11/25 07:33:05;;;;;;;;;14.25;11.75;;;;;20.39;41.80;100447.84;5049528;28;45304;-75
2021/11/25 07:35:31;;;;;;;;;17.75;14.50;;;;;20.40;41.99;100454.88;5008020;28;45273;-75
2021/11/25 07:37:57;;;;;;;;;18.25;14.00;;;;;20.40;42.30;100460.19;5024525;28;45353;-72
2021/11/25 07:40:23;;;;;;;;;18.25;16.25;;;;;20.38;42.76;100454.94;5042170;28;45524;-73
2021/11/25 07:42:49;;;;;;;;;17.50;12.75;;;;;20.44;42.13;100470.66;5042231;28;45268;-71
2021/11/25 07:45:14;;;;;;;;;20.50;16.25;;;;;20.49;42.17;100476.66;5040709;28;45360;-72
2021/11/25 07:47:40;;;;;;;;;17.50;15.25;;;;;20.54;42.25;100481.81;5024230;28;45462;-73
2021/11/25 07:50:14;;;;;;;;;17.00;14.75;;;;;20.56;42.32;100483.47;5041993;28;46057;-73
2021/11/25 07:52:40;;;;;;;;;13.75;12.25;;;;;20.61;42.20;100483.31;5025213;28;45404;-73
2021/11/25 07:55:06;;;;;;;;;16.75;15.25;;;;;20.64;42.17;100483.19;5042447;28;45468;-73
2021/11/25 07:57:32;;;;;;;;;14.75;14.00;;;;;20.67;42.29;100485.72;5024272;28;45445;-72
2021/11/25 07:59:57;;;;;;;;;19.00;14.50;;;;;20.71;42.03;100489.16;5041399;28;53814;-74
2021/11/25 08:02:23;;;;;;;;;16.00;14.50;;;;;20.73;42.28;100487.28;5023819;28;45483;-71
2021/11/25 08:04:48;;;;;;;;;9.75;9.25;;;;;20.75;42.61;100493.41;5055784;28;45455;-74
2021/11/25 08:07:14;;;;;;;;;14.50;12.50;;;;;20.76;42.31;100501.34;5036575;28;45554;-72
2021/11/25 08:09:39;;;;;;;;;15.00;14.75;;;;;20.78;42.18;100496.81;5046465;28;71199;-73
2021/11/25 08:12:05;;;;;;;;;19.25;17.75;;;;;20.82;42.15;100513.47;5047764;28;45490;-74
2021/11/25 08:14:30;;;;;;;;;15.75;14.25;;;;;20.84;41.78;100516.94;5048740;28;45496;-74
2021/11/25 08:16:58;;;;;;;;;18.25;15.25;;;;;20.86;41.85;100518.63;5072138;28;55497;-73
2021/11/25 08:19:24;;;;;;;;;16.50;14.00;;;;;20.87;41.47;100514.19;5028890;28;47668;-74
2021/11/25 08:21:50;;;;;;;;;17.00;16.25;;;;;20.89;41.40;100515.84;5059986;28;45310;-74
2021/11/25 08:24:15;;;;;;;;;16.75;15.25;;;;;20.92;41.36;100514.88;5057285;28;45899;-74
2021/11/25 08:26:41;;;;;;;;;17.25;15.00;;;;;20.93;41.10;100521.91;5039594;28;66118;-74
2021/11/25 08:29:06;;;;;;;;;20.25;15.75;;;;;20.94;41.27;100520.13;5040004;28;46080;-74
2021/11/25 08:31:31;;;;;;;;;16.00;14.25;;;;;20.94;41.61;100512.16;5052430;28;62404;-74
2021/11/25 08:33:57;;;;;;;;;19.00;14.75;;;;;20.97;41.40;100520.03;5042933;28;54624;-74
2021/11/25 08:36:22;;;;;;;;;21.25;15.00;;;;;20.98;41.40;100524.41;5056958;28;45362;-74
2021/11/25 08:38:48;;;;;;;;;17.50;14.25;;;;;20.99;40.89;100526.13;5042763;28;51773;-73
2021/11/25 08:41:13;;;;;;;;;17.00;15.50;;;;;21.00;40.91;100528.72;5043186;28;45441;-73
2021/11/25 08:43:39;;;;;;;;;16.00;15.00;;;;;21.01;40.98;100526.94;5060145;28;45630;-74
2021/11/25 08:46:04;;;;;;;;;23.50;18.00;;;;;21.02;41.18;100526.88;5059476;28;45415;-74
2021/11/25 08:48:29;;;;;;;;;17.50;15.00;;;;;21.03;41.16;100522.47;5042675;28;48243;-73
2021/11/25 08:50:55;;;;;;;;;18.50;16.00;;;;;21.05;40.96;100521.47;5036799;28;45261;-72
2021/11/25 08:53:23;;;;;;;;;19.75;15.75;;;;;21.06;41.45;100520.53;5059222;28;45367;-72
2021/11/25 08:55:49;;;;;;;;;17.25;16.25;;;;;21.08;41.23;100523.13;5058968;28;45700;-72
2021/11/25 08:58:14;;;;;;;;;19.50;18.25;;;;;21.10;41.20;100513.31;5058821;28;46257;-73
2021/11/25 09:00:40;;;;;;;;;19.50;17.25;;;;;21.11;41.06;100510.63;5035370;28;45960;-72
2021/11/25 09:03:05;;;;;;;;;18.25;15.50;;;;;21.15;41.09;100506.06;5063877;28;49606;-73
2021/11/25 09:05:32;;;;;;;;;15.50;14.00;;;;;21.16;41.03;100506.00;5067896;28;45436;-73
2021/11/25 09:07:57;;;;;;;;;18.25;17.50;;;;;21.18;40.83;100508.59;5042833;28;46102;-73
2021/11/25 09:10:22;;;;;;;;;17.00;16.00;;;;;21.18;40.97;100512.09;5059733;28;45408;-73
2021/11/25 09:12:48;;;;;;;;;16.25;14.75;;;;;21.22;41.02;100509.34;5058138;28;45268;-72
2021/11/25 09:15:14;;;;;;;;;20.50;15.50;;;;;21.22;41.11;100506.69;5059371;28;45350;-72
2021/11/25 09:17:39;;;;;;;;;18.50;17.00;;;;;21.22;40.90;100507.56;5042187;28;47125;-73
2021/11/25 09:20:05;;;;;;;;;20.50;19.25;;;;;21.24;41.06;100507.50;5059646;28;61509;-73
2021/11/25 09:22:31;;;;;;;;;23.00;19.75;;;;;21.26;40.56;100508.28;5059374;28;45461;-73
2021/11/25 09:24:56;;;;;;;;;22.50;18.25;;;;;21.26;40.97;100503.84;5058992;28;58084;-72
2021/11/25 09:27:21;;;;;;;;;20.75;17.75;;;;;21.27;40.89;100507.41;5052167;28;66589;-73
2021/11/25 09:29:47;;;;;;;;;21.25;18.75;;;;;21.28;40.88;100494.06;5060260;28;45359;-72
2021/11/25 09:32:12;;;;;;;;;22.75;17.25;;;;;21.29;41.12;100493.16;5051013;28;55451;-72
2021/11/25 09:34:38;;;;;;;;;21.50;19.75;;;;;21.31;41.36;100493.09;5038690;28;58475;-72
2021/11/25 09:37:04;;;;;;;;;19.00;16.50;;;;;21.31;40.95;100496.63;5039589;28;47508;-72
2021/11/25 09:39:30;;;;;;;;;21.50;18.25;;;;;21.32;40.81;100497.47;5058841;28;45356;-73
2021/11/25 09:41:55;;;;;;;;;19.50;18.00;;;;;21.32;41.05;100498.34;5052868;28;45481;-72
2021/11/25 09:44:21;;;;;;;;;18.50;17.00;;;;;21.33;40.63;100493.91;5063409;28;45393;-72
2021/11/25 09:46:49;;;;;;;;;18.75;16.50;;;;;21.34;40.92;100499.13;5054983;28;46187;-72
2021/11/25 09:49:14;;;;;;;;;15.75;14.25;;;;;21.34;40.96;100496.50;5042338;28;45243;-72
2021/11/25 09:51:40;;;;;;;;;20.50;17.25;;;;;21.32;40.77;100490.38;5059048;28;45275;-72
2021/11/25 09:54:08;;;;;;;;;21.25;17.25;;;;;21.32;40.38;100490.38;5060140;28;45141;-72
2021/11/25 09:56:34;;;;;;;;;19.00;16.50;;;;;21.33;40.57;100488.59;5057651;28;45458;-72
2021/11/25 09:58:59;;;;;;;;;19.00;18.25;;;;;21.33;40.54;100493.91;5060160;28;45344;-72
2021/11/25 10:01:24;;;;;;;;;22.75;17.00;;;;;21.34;40.43;100499.13;5059894;28;45790;-72
2021/11/25 10:03:50;;;;;;;;;21.00;18.50;;;;;21.33;40.73;100510.69;5058038;28;45513;-72
2021/11/25 10:06:17;;;;;;;;;16.50;16.00;;;;;21.34;40.70;100500.94;5051219;28;45909;-72
2021/11/25 10:08:47;;;;;;;;;17.00;17.00;;;;;21.33;40.69;100512.47;5041992;28;45755;-72
2021/11/25 10:11:18;;;;;;;;;19.00;17.00;;;;;21.34;40.73;100508.91;5042489;28;46429;-73
2021/11/25 10:13:57;;;;;;;;;25.50;18.50;;;;;21.33;41.05;100516.00;5056424;28;45422;-72
2021/11/25 10:16:33;;;;;;;;;23.25;19.25;;;;;21.33;40.47;100515.13;5034423;28;48189;-73
2021/11/25 10:19:08;;;;;;;;;20.50;18.00;;;;;21.32;40.57;100514.28;5058428;28;45427;-72
2021/11/25 10:21:34;;;;;;;;;24.50;19.50;;;;;21.32;40.06;100508.09;5042495;28;45708;-73
2021/11/25 10:23:59;;;;;;;;;20.75;18.50;;;;;21.32;40.04;100497.47;5058529;28;45473;-73
2021/11/25 10:26:26;;;;;;;;;19.50;18.75;;;;;21.32;40.45;100498.34;5057208;28;65047;-72
2021/11/25 10:28:59;;;;;;;;;22.75;19.50;;;;;21.34;40.18;100501.78;5056754;28;45334;-73
2021/11/25 10:31:29;;;;;;;;;19.75;17.50;;;;;21.34;39.78;100501.78;5059663;28;45324;-73
2021/11/25 10:34:05;;;;;;;;;20.25;19.25;;;;;21.35;39.91;100507.97;5041557;28;45816;-73
2021/11/25 10:42:17;;;;;;;;;21.75;19.00;;;;;21.32;39.44;100502.78;5059640;28;45342;-72
2021/11/25 10:44:47;;;;;;;;;22.50;19.50;;;;;21.32;39.67;100503.66;5057880;28;45349;-72
2021/11/25 10:47:15;;;;;;;;;19.50;17.50;;;;;21.32;39.83;100497.47;5058202;28;45880;-73
2021/11/25 10:49:54;;;;;;;;;21.50;19.75;;;;;21.32;40.08;100493.03;5058238;28;45390;-73
2021/11/25 10:52:42;;;;;;;;;14.00;13.50;;;;;21.31;39.62;100488.66;5059798;28;45189;-73
2021/11/25 10:55:19;;;;;;;;;20.25;19.25;;;;;21.29;40.09;100487.84;5041539;28;45384;-72
2021/11/25 10:57:44;;;;;;;;;23.00;19.75;;;;;21.29;39.72;100485.19;5056562;28;46062;-72
2021/11/25 11:00:19;;;;;;;;;19.75;17.50;;;;;21.29;39.49;100482.53;5061035;28;45525;-72
2021/11/25 11:02:44;;;;;;;;;19.75;17.50;;;;;21.28;39.64;100485.22;5060628;28;45528;-72
2021/11/25 11:05:14;;;;;;;;;23.75;18.75;;;;;21.28;40.20;100479.94;5060196;28;55864;-72
2021/11/25 11:07:40;;;;;;;;;19.50;19.00;;;;;21.27;39.86;100475.53;5062876;28;45350;-72
2021/11/25 11:10:21;;;;;;;;;17.00;16.50;;;;;21.27;39.72;100475.53;5062428;28;45444;-73
2021/11/25 11:12:57;;;;;;;;;25.00;16.50;;;;;21.26;39.72;100477.31;5064073;28;45398;-72
2021/11/25 11:20:45;;;;;;;;;25.00;20.50;;;;;21.24;39.73;100468.53;5062574;28;45375;-73
2021/11/25 11:23:12;;;;;;;;;17.00;17.00;;;;;21.25;39.75;100482.69;5062880;28;45414;-73